This demonstration page uses our WeatherBlox Daily Observations layout. Learn more.

39.08367, -84.50855

Hourly Observations for May 28, 2019

Temp ( °F °C ) Dew Point ( °F °C ) Humidity (%) Winds ( mph kmh ) Pressure ( in mb ) Visibility ( mi km ) Precip ( " mm )
12:53 am 00:53 Clear 75 23.9 66 18.9 74 74 SW 8 13 29.8 1009 10 16.09344 0 0
1:53 am 01:53 Clear 73 22.8 66 18.9 79 79 SW 6 9 29.8 1009 10 16.09344 0 0
2:53 am 02:53 Clear 74 23.3 66 18.9 76 76 SSW 10 17 29.77 1008 10 16.09344 0 0
3:53 am 03:53 Mostly Cloudy 74 23.3 67 19.4 79 79 SSW 9 15 29.77 1008 10 16.09344 0 0
4:53 am 04:53 Clear 74 23.3 67 19.4 79 79 SSW 9 15 29.77 1008 10 16.09344 0 0
5:53 am 05:53 Clear 73 22.8 66 18.9 79 79 SSW 9 15 29.8 1009 10 16.09344 0 0
6:53 am 06:53 Sunny 73 22.8 67 19.4 81 81 SSW 9 15 29.8 1009 10 16.09344 0 0
7:53 am 07:53 Sunny 75 23.9 68 20 79 79 SSW 9 15 29.8 1009 10 16.09344 0 0
8:53 am 08:53 Sunny 78 25.6 67 19.4 69 69 SSW 12 19 29.8 1009 10 16.09344 0 0
9:53 am 09:53 Sunny 80 26.7 68 20 67 67 WSW 14 22 29.8 1009 10 16.09344 0 0
10:53 am 10:53 Partly Cloudy 82 27.8 68 20 63 63 SW 17 28 29.8 1009 10 16.09344 0 0
11:53 am 11:53 Partly Cloudy 83 28.3 67 19.4 59 59 SW 22 35 29.8 1009 10 16.09344 0 0
12:53 pm 12:53 Partly Cloudy 84 28.9 67 19.4 57 57 SW 21 33 29.8 1009 10 16.09344 0 0
1:53 pm 13:53 Mostly Cloudy 85 29.4 68 20 57 57 SSW 17 28 29.77 1008 10 16.09344 0 0
2:53 pm 14:53 Partly Cloudy 85 29.4 67 19.4 55 55 SW 24 39 29.77 1008 10 16.09344 0 0
3:53 pm 15:53 Partly Cloudy 84 28.9 65 18.3 53 53 SW 23 37 29.77 1008 10 16.09344 0 0
4:53 pm 16:53 Partly Cloudy 85 29.4 66 18.9 53 53 WSW 21 33 29.74 1007 10 16.09344 0 0
5:53 pm 17:53 Partly Cloudy 86 30 67 19.4 53 53 SW 10 17 29.74 1007 10 16.09344 0 0
6:53 pm 18:53 Sunny 85 29.4 64 17.8 50 50 WSW 18 30 29.74 1007 10 16.09344 0 0
7:53 pm 19:53 Mostly Sunny 83 28.3 65 18.3 55 55 WSW 12 19 29.77 1008 10 16.09344 0 0
8:53 pm 20:53 Sunny 77 25 66 18.9 69 69 S 7 11 29.74 1007 10 16.09344 0 0
9:53 pm 21:53 Clear 74 23.3 66 18.9 76 76 SSW 7 11 29.74 1007 10 16.09344 0 0
10:53 pm 22:53 Clear 73 22.8 66 18.9 79 79 S 8 13 29.74 1007 10 16.09344 0 0
11:53 pm 23:53 Clear 72 22.2 66 18.9 82 82 S 7 11 29.74 1007 10 16.09344 0 0

Powered by AerisWeather